Time;durP1;ratioP1;P1;durP2;ratioP2;P2;SDS_P1;SDS_P2;PMS_P1;PMS_P2;Temp;Humidity;BMP_temperature;BMP_pressure;BME280_temperature;BME280_humidity;BME280_pressure;Samples;Min_cycle;Max_cycle;Signal;HPM_P1;HPM_P2
2022/11/21 00:00:26;;;;;;;1.55;0.82;;;5.90;99.90;;;;;;5089773;28;20027;-76
2022/11/21 00:02:51;;;;;;;0.80;0.80;;;6.00;99.90;;;;;;5089733;28;20028;-76
2022/11/21 00:05:17;;;;;;;0.77;0.77;;;5.90;99.90;;;;;;5089392;28;20081;-76
2022/11/21 00:07:44;;;;;;;0.30;0.30;;;6.00;99.90;;;;;;5089549;28;20036;-76
2022/11/21 00:10:11;;;;;;;9.27;0.90;;;6.00;99.90;;;;;;5105742;28;20157;-75
2022/11/21 00:12:37;;;;;;;1.13;0.73;;;5.90;99.90;;;;;;5105412;28;20021;-76
2022/11/21 00:15:03;;;;;;;2.03;0.80;;;5.80;99.90;;;;;;5089677;28;20487;-76
2022/11/21 00:17:29;;;;;;;1.50;1.35;;;5.80;99.90;;;;;;5089564;28;20376;-75
2022/11/21 00:19:55;;;;;;;3.30;0.47;;;5.90;99.90;;;;;;5089438;28;20024;-76
2022/11/21 00:22:20;;;;;;;0.52;0.38;;;5.90;99.90;;;;;;5089633;28;20457;-76
2022/11/21 00:24:46;;;;;;;1.33;0.50;;;4.60;99.90;;;;;;5088050;28;20070;-75
2022/11/21 00:27:12;;;;;;;0.40;0.40;;;5.90;99.90;;;;;;5088214;28;20017;-76
2022/11/21 00:29:37;;;;;;;0.50;0.50;;;6.00;99.90;;;;;;5088107;28;20432;-76
2022/11/21 00:32:03;;;;;;;1.75;0.50;;;6.10;99.90;;;;;;5089463;28;20095;-75
2022/11/21 00:34:29;;;;;;;2.53;0.65;;;6.00;99.90;;;;;;5087792;28;20232;-76
2022/11/21 00:36:54;;;;;;;0.20;0.20;;;6.00;99.90;;;;;;5104875;28;20501;-75
2022/11/21 00:39:20;;;;;;;4.75;1.20;;;6.00;99.90;;;;;;5089353;28;20032;-76
2022/11/21 00:41:46;;;;;;;0.65;0.38;;;5.90;99.90;;;;;;5089387;28;20473;-76
2022/11/21 00:44:11;;;;;;;0.63;0.60;;;6.10;99.90;;;;;;5089294;28;20480;-75
2022/11/21 00:46:37;;;;;;;2.42;0.75;;;6.20;99.90;;;;;;5089575;28;20070;-75
2022/11/21 00:49:02;;;;;;;3.20;0.40;;;6.30;99.90;;;;;;5089064;28;20228;-75
2022/11/21 00:51:28;;;;;;;0.88;0.47;;;6.30;99.90;;;;;;5089235;28;20434;-76
2022/11/21 00:53:54;;;;;;;0.30;0.30;;;6.30;99.90;;;;;;5089248;28;20465;-76
2022/11/21 00:56:19;;;;;;;2.53;1.15;;;6.30;99.90;;;;;;5089192;28;20457;-75
2022/11/21 00:58:45;;;;;;;3.70;0.52;;;6.30;99.90;;;;;;5090485;28;20464;-76
2022/11/21 01:01:13;;;;;;;3.13;0.60;;;6.30;99.90;;;;;;5093101;28;20030;-75
2022/11/21 01:03:39;;;;;;;2.85;0.75;;;6.30;99.90;;;;;;5091570;28;20427;-76
2022/11/21 01:06:10;;;;;;;2.47;1.33;;;6.40;99.90;;;;;;5093387;28;20020;-75
2022/11/21 01:08:38;;;;;;;4.13;0.63;;;6.40;99.90;;;;;;5091844;28;20036;-76
2022/11/21 01:11:05;;;;;;;0.30;0.30;;;6.40;99.90;;;;;;5091838;28;20051;-75
2022/11/21 01:13:31;;;;;;;0.50;0.50;;;6.40;99.90;;;;;;5091651;28;20472;-76
2022/11/21 01:16:05;;;;;;;0.88;0.82;;;6.40;99.90;;;;;;5092925;28;20024;-75
2022/11/21 01:18:31;;;;;;;1.63;0.55;;;6.30;99.90;;;;;;5091497;28;20028;-75
2022/11/21 01:21:02;;;;;;;2.88;1.15;;;6.30;99.90;;;;;;5090774;28;20500;-76
2022/11/21 01:23:28;;;;;;;0.20;0.20;;;6.20;99.90;;;;;;5092597;28;20063;-75
2022/11/21 01:25:53;;;;;;;2.72;1.00;;;6.10;99.90;;;;;;5091344;28;20456;-75
2022/11/21 01:28:19;;;;;;;0.88;0.30;;;6.10;99.90;;;;;;5092545;28;20492;-75
2022/11/21 01:30:45;;;;;;;1.98;0.65;;;6.10;99.90;;;;;;5092652;28;20023;-75
2022/11/21 01:33:10;;;;;;;0.60;0.60;;;6.10;99.90;;;;;;5092619;28;20020;-76
2022/11/21 01:35:36;;;;;;;0.98;0.95;;;6.20;99.90;;;;;;5091016;28;20044;-75
2022/11/21 01:38:02;;;;;;;3.13;1.38;;;6.10;99.90;;;;;;5091394;28;20051;-75
2022/11/21 01:40:27;;;;;;;4.82;1.50;;;4.60;99.90;;;;;;5092481;28;20051;-76
2022/11/21 01:43:01;;;;;;;3.10;0.80;;;6.20;99.90;;;;;;5090811;28;20544;-75
2022/11/21 01:45:57;;;;;;;7.35;1.40;;;6.40;99.90;;;;;;5092076;28;20421;-76
2022/11/21 01:48:33;;;;;;;8.43;1.38;;;6.40;99.90;;;;;;5092044;28;20035;-76
2022/11/21 01:51:05;;;;;;;2.85;0.57;;;6.50;99.90;;;;;;5092105;28;20177;-75
2022/11/21 01:53:32;;;;;;;2.67;0.90;;;6.40;99.90;;;;;;5107586;28;20531;-75
2022/11/21 01:55:57;;;;;;;2.13;0.73;;;6.40;99.90;;;;;;5091596;28;20473;-76
2022/11/21 01:58:24;;;;;;;5.32;1.42;;;6.30;99.90;;;;;;5091927;28;20095;-75
2022/11/21 02:00:50;;;;;;;0.50;0.40;;;6.30;99.90;;;;;;5090723;28;20032;-74
2022/11/21 02:03:20;;;;;;;1.00;0.40;;;6.30;99.90;;;;;;5091674;28;20043;-74
2022/11/21 02:05:47;;;;;;;2.72;0.82;;;6.30;99.90;;;;;;5092057;28;20099;-75
2022/11/21 02:08:18;;;;;;;3.42;0.47;;;6.20;99.90;;;;;;5091764;28;20055;-74
2022/11/21 02:10:55;;;;;;;3.08;1.45;;;6.20;99.90;;;;;;5090983;28;20103;-74
2022/11/21 02:13:21;;;;;;;0.82;0.80;;;6.10;99.90;;;;;;5090653;28;20032;-74
2022/11/21 02:15:47;;;;;;;11.20;0.80;;;6.10;99.90;;;;;;5091876;28;20024;-73
2022/11/21 02:18:13;;;;;;;7.00;1.80;;;6.00;99.90;;;;;;5091746;28;20373;-74
2022/11/21 02:20:44;;;;;;;2.22;0.88;;;5.90;99.90;;;;;;5091314;28;20024;-74
2022/11/21 02:23:19;;;;;;;0.45;0.45;;;5.90;99.90;;;;;;5091287;28;20039;-75
2022/11/21 02:25:44;;;;;;;9.90;0.60;;;5.90;99.90;;;;;;5091581;28;20032;-74
2022/11/21 02:28:22;;;;;;;0.40;0.40;;;5.90;99.90;;;;;;5091880;28;20032;-74
2022/11/21 02:30:48;;;;;;;20.95;1.88;;;5.90;99.90;;;;;;5090181;28;20059;-74
2022/11/21 02:33:14;;;;;;;1.48;0.77;;;5.90;99.90;;;;;;5091383;28;20016;-75
2022/11/21 02:35:41;;;;;;;2.42;0.35;;;5.80;99.90;;;;;;5090858;28;20048;-74
2022/11/21 02:38:19;;;;;;;2.05;1.65;;;5.90;99.90;;;;;;5091068;28;20460;-74
2022/11/21 02:41:11;;;;;;;5.13;0.47;;;5.90;99.90;;;;;;5091250;28;20429;-74
2022/11/21 02:43:54;;;;;;;1.83;0.32;;;5.80;99.90;;;;;;5090617;28;20043;-74
2022/11/21 02:46:20;;;;;;;1.02;0.50;;;5.80;99.90;;;;;;5091177;28;20028;-75
2022/11/21 02:48:45;;;;;;;2.90;0.30;;;5.80;99.90;;;;;;5090868;28;20027;-75
2022/11/21 02:51:11;;;;;;;3.65;0.70;;;5.80;99.90;;;;;;5091081;28;20085;-74
2022/11/21 02:53:37;;;;;;;1.17;0.65;;;5.80;99.90;;;;;;5090894;28;20016;-75
2022/11/21 02:56:02;;;;;;;0.77;0.20;;;5.80;99.90;;;;;;5090882;28;20032;-74
2022/11/21 02:58:28;;;;;;;1.15;1.05;;;5.70;99.90;;;;;;5090612;28;20039;-74
2022/11/21 03:00:54;;;;;;;0.60;0.57;;;5.70;99.90;;;;;;5089667;28;20024;-74
2022/11/21 03:03:20;;;;;;;8.85;1.15;;;5.70;99.90;;;;;;5090257;28;20088;-75
2022/11/21 03:05:47;;;;;;;0.22;0.20;;;5.80;99.90;;;;;;5090386;28;20020;-75
2022/11/21 03:08:12;;;;;;;1.20;0.40;;;5.80;99.90;;;;;;5089449;28;20422;-75
2022/11/21 03:10:38;;;;;;;6.07;0.60;;;5.80;99.90;;;;;;5088777;28;20028;-75
2022/11/21 03:13:04;;;;;;;1.38;0.82;;;5.80;99.90;;;;;;5088552;28;20106;-75
2022/11/21 03:15:32;;;;;;;2.28;0.40;;;5.90;99.90;;;;;;5087071;28;20032;-75
2022/11/21 03:17:59;;;;;;;3.53;0.95;;;5.90;99.90;;;;;;5104151;28;20480;-75
2022/11/21 03:20:25;;;;;;;0.43;0.38;;;5.80;99.90;;;;;;5088531;28;20035;-75
2022/11/21 03:22:52;;;;;;;0.32;0.32;;;5.80;99.90;;;;;;5089437;28;20031;-75
2022/11/21 03:25:18;;;;;;;0.22;0.22;;;5.70;99.90;;;;;;5088829;28;20028;-75
2022/11/21 03:27:44;;;;;;;2.60;0.55;;;5.60;99.90;;;;;;5089147;28;20020;-75
2022/11/21 03:30:10;;;;;;;0.65;0.60;;;5.50;99.90;;;;;;5089924;28;20028;-75
2022/11/21 03:32:36;;;;;;;0.35;0.35;;;5.50;99.90;;;;;;5089152;28;20024;-75
2022/11/21 03:35:02;;;;;;;3.83;0.70;;;5.50;99.90;;;;;;5089448;28;20050;-75
2022/11/21 03:37:27;;;;;;;2.65;0.57;;;5.50;99.90;;;;;;5090072;28;20541;-75
2022/11/21 03:39:53;;;;;;;0.28;0.28;;;5.60;99.90;;;;;;5090445;28;20377;-75
2022/11/21 03:42:19;;;;;;;0.68;0.47;;;5.80;99.90;;;;;;5089982;28;20504;-75
2022/11/21 03:44:44;;;;;;;0.35;0.35;;;5.80;99.90;;;;;;5089998;28;20035;-75
2022/11/21 03:47:10;;;;;;;0.85;0.75;;;5.80;99.90;;;;;;5090227;28;20059;-75
2022/11/21 03:49:35;;;;;;;3.08;0.60;;;5.80;99.90;;;;;;5089771;28;20325;-75
2022/11/21 03:52:01;;;;;;;4.30;1.23;;;5.90;99.90;;;;;;5090153;28;20476;-75
2022/11/21 03:54:27;;;;;;;2.72;0.30;;;5.90;99.90;;;;;;5089881;28;20039;-75
2022/11/21 03:56:52;;;;;;;0.45;0.45;;;5.90;99.90;;;;;;5090250;28;20486;-75
2022/11/21 03:59:18;;;;;;;0.50;0.43;;;5.90;99.90;;;;;;5090377;28;20488;-75
2022/11/21 04:01:43;;;;;;;5.68;0.50;;;6.00;99.90;;;;;;5089895;28;20560;-75
2022/11/21 04:04:09;;;;;;;2.25;0.40;;;5.90;99.90;;;;;;5089905;28;20617;-75
2022/11/21 04:06:35;;;;;;;5.43;1.25;;;5.80;99.90;;;;;;5089701;28;20381;-75
2022/11/21 04:09:00;;;;;;;3.90;1.55;;;5.90;99.90;;;;;;5089611;28;20032;-75
2022/11/21 04:11:26;;;;;;;1.70;0.98;;;5.90;99.90;;;;;;5089675;28;20107;-75
2022/11/21 04:13:52;;;;;;;2.63;0.82;;;6.00;99.90;;;;;;5089945;28;20077;-75
2022/11/21 04:16:18;;;;;;;0.40;0.40;;;6.00;99.90;;;;;;5105153;28;20031;-75
2022/11/21 04:18:43;;;;;;;9.48;0.70;;;6.00;99.90;;;;;;5089293;28;20050;-75
2022/11/21 04:21:09;;;;;;;0.43;0.40;;;6.10;99.90;;;;;;5089830;28;20085;-75
2022/11/21 04:23:35;;;;;;;0.90;0.75;;;6.00;99.90;;;;;;5089780;28;20389;-75
2022/11/21 04:26:00;;;;;;;1.17;0.40;;;6.00;99.90;;;;;;5089472;28;20020;-75
2022/11/21 04:28:26;;;;;;;1.45;0.57;;;6.00;99.90;;;;;;5089352;28;20028;-75
2022/11/21 04:30:52;;;;;;;4.35;0.90;;;6.00;99.90;;;;;;5088061;28;20027;-75
2022/11/21 04:33:18;;;;;;;2.42;0.82;;;6.00;99.90;;;;;;5090156;28;20053;-75
2022/11/21 04:35:44;;;;;;;2.58;0.57;;;6.00;99.90;;;;;;5091896;28;20386;-75
2022/11/21 04:38:10;;;;;;;4.22;1.15;;;6.00;99.90;;;;;;5094166;28;20032;-75
2022/11/21 04:40:36;;;;;;;1.23;0.80;;;6.00;99.90;;;;;;5093317;28;20020;-75
2022/11/21 04:43:02;;;;;;;4.05;0.45;;;6.00;99.90;;;;;;5093416;28;20333;-75
2022/11/21 04:45:28;;;;;;;2.80;0.30;;;6.10;99.90;;;;;;5092067;28;20419;-75
2022/11/21 04:47:53;;;;;;;4.53;0.73;;;6.10;99.90;;;;;;5091862;28;20062;-75
2022/11/21 04:50:20;;;;;;;0.55;0.38;;;6.20;99.90;;;;;;5093273;28;20024;-76
2022/11/21 04:52:53;;;;;;;1.55;0.95;;;6.20;99.90;;;;;;5093090;28;20499;-75
2022/11/21 04:55:20;;;;;;;0.50;0.40;;;6.30;99.90;;;;;;5093197;28;20051;-76
2022/11/21 04:57:46;;;;;;;3.20;1.95;;;6.40;99.90;;;;;;5093134;28;20027;-75
2022/11/21 05:00:13;;;;;;;5.38;1.25;;;6.40;99.90;;;;;;5092946;28;20024;-75
2022/11/21 05:02:39;;;;;;;1.23;1.13;;;6.30;99.90;;;;;;5091519;28;20085;-76
2022/11/21 05:05:05;;;;;;;6.75;0.93;;;6.40;99.90;;;;;;5108138;28;20028;-76
2022/11/21 05:07:31;;;;;;;2.55;0.40;;;6.30;99.90;;;;;;5092847;28;20097;-75
2022/11/21 05:09:56;;;;;;;5.22;0.90;;;6.30;99.90;;;;;;5092785;28;20481;-75
2022/11/21 05:15:06;;;;;;;1.73;0.95;;;6.20;99.90;;;;;;5093010;28;20054;-76
2022/11/21 05:17:32;;;;;;;0.68;0.68;;;6.20;99.90;;;;;;5093001;28;20435;-75
2022/11/21 05:19:58;;;;;;;2.90;0.73;;;6.20;99.90;;;;;;5092896;28;20063;-75
2022/11/21 05:22:24;;;;;;;4.25;1.48;;;6.20;99.90;;;;;;5108514;28;20024;-75
2022/11/21 05:24:49;;;;;;;0.17;0.17;;;6.20;99.90;;;;;;5092796;28;20107;-75
2022/11/21 05:27:15;;;;;;;0.88;0.30;;;6.20;99.90;;;;;;5093177;28;20024;-75
2022/11/21 05:29:41;;;;;;;0.70;0.60;;;6.20;99.90;;;;;;5092576;28;20032;-75
2022/11/21 05:32:06;;;;;;;1.50;1.33;;;6.10;99.90;;;;;;5108345;28;20032;-76
2022/11/21 05:34:32;;;;;;;0.52;0.50;;;6.10;99.90;;;;;;5092350;28;20373;-76
2022/11/21 05:36:57;;;;;;;1.50;1.00;;;6.10;99.90;;;;;;5092113;28;20492;-76
2022/11/21 05:39:24;;;;;;;1.48;0.50;;;6.10;99.90;;;;;;5092232;28;20365;-75
2022/11/21 05:41:50;;;;;;;1.45;0.60;;;6.10;99.90;;;;;;5092360;28;20035;-75
2022/11/21 05:44:15;;;;;;;2.67;1.02;;;6.10;99.90;;;;;;5090519;28;20130;-75
2022/11/21 05:46:41;;;;;;;6.32;0.60;;;6.10;99.90;;;;;;5091199;28;20533;-75
2022/11/21 05:49:07;;;;;;;4.65;0.60;;;6.20;99.90;;;;;;5091968;28;20071;-76
2022/11/21 05:51:32;;;;;;;1.40;0.90;;;6.20;99.90;;;;;;5092161;28;20028;-76
2022/11/21 05:53:58;;;;;;;1.08;0.98;;;6.20;99.90;;;;;;5092298;28;20036;-76
2022/11/21 05:56:24;;;;;;;4.25;0.80;;;6.20;99.90;;;;;;5090438;28;20069;-75
2022/11/21 05:58:49;;;;;;;0.55;0.40;;;6.20;99.90;;;;;;5107361;28;20024;-75
2022/11/21 06:03:25;;;;;;;4.38;0.90;;;6.20;99.90;;;;;;5091820;28;20108;-76
2022/11/21 06:04:01;;;;;;;5.97;1.27;;;6.20;99.90;;;;;;5091806;28;20032;-75
2022/11/21 06:06:27;;;;;;;4.90;2.10;;;6.20;99.90;;;;;;5091893;28;20483;-75
2022/11/21 06:08:52;;;;;;;6.03;1.85;;;6.30;99.90;;;;;;5092411;28;20512;-75
2022/11/21 06:11:18;;;;;;;1.13;0.75;;;6.30;99.90;;;;;;5091852;28;20512;-76
2022/11/21 06:13:44;;;;;;;2.35;1.67;;;6.30;99.90;;;;;;5107633;28;20062;-75
2022/11/21 06:16:20;;;;;;;1.00;0.98;;;6.40;99.90;;;;;;5091596;28;20024;-76
2022/11/21 06:18:48;;;;;;;3.05;0.70;;;6.30;99.90;;;;;;5094362;28;20540;-75
2022/11/21 06:21:16;;;;;;;2.92;1.20;;;6.40;99.90;;;;;;5090427;28;20038;-76
2022/11/21 06:23:42;;;;;;;1.77;0.60;;;6.40;99.90;;;;;;5089937;28;20110;-75
2022/11/21 06:26:12;;;;;;;2.58;1.08;;;4.20;99.90;;;;;;5091695;28;20031;-75
2022/11/21 06:28:38;;;;;;;;;;;6.40;99.90;;;;;;5091952;28;20024;-75
2022/11/21 06:31:07;;;;;;;1.65;0.68;;;6.50;99.90;;;;;;5091002;28;19922;-75
2022/11/21 06:33:34;;;;;;;2.22;0.65;;;6.40;99.90;;;;;;5089631;28;20235;-75
2022/11/21 06:36:11;;;;;;;2.42;1.60;;;6.40;99.90;;;;;;5089466;28;20126;-75
2022/11/21 06:38:37;;;;;;;8.52;1.25;;;6.40;99.90;;;;;;5090091;28;20034;-76
2022/11/21 06:41:11;;;;;;;5.40;1.38;;;6.40;99.90;;;;;;5090911;28;20039;-75
2022/11/21 06:43:37;;;;;;;4.55;1.58;;;6.30;99.90;;;;;;5089743;28;20036;-75
2022/11/21 06:46:03;;;;;;;2.83;1.13;;;6.30;99.90;;;;;;5091087;28;20028;-76
2022/11/21 06:48:33;;;;;;;5.32;1.80;;;6.20;99.90;;;;;;5088992;28;20035;-76
2022/11/21 06:51:25;;;;;;;1.52;0.93;;;6.20;99.90;;;;;;5091751;28;20434;-75
2022/11/21 06:53:55;;;;;;;9.25;2.10;;;6.20;99.90;;;;;;5087950;28;20508;-77
2022/11/21 06:56:22;;;;;;;12.00;1.35;;;6.20;99.90;;;;;;5090747;28;20531;-76
2022/11/21 06:58:48;;;;;;;8.95;1.60;;;6.10;99.90;;;;;;5090988;28;20545;-75
2022/11/21 07:01:14;;;;;;;4.45;0.80;;;6.10;99.90;;;;;;5090608;28;20043;-76
2022/11/21 07:03:39;;;;;;;3.30;2.15;;;6.10;99.90;;;;;;5107329;28;20035;-76
2022/11/21 07:06:06;;;;;;;0.90;0.85;;;6.20;99.90;;;;;;5090848;28;20017;-76
2022/11/21 07:08:34;;;;;;;1.67;1.23;;;6.30;99.90;;;;;;5106483;28;20024;-77
2022/11/21 07:11:01;;;;;;;3.33;0.98;;;6.30;99.90;;;;;;5090575;28;20138;-76
2022/11/21 07:13:27;;;;;;;3.22;1.08;;;6.30;99.90;;;;;;5090707;28;20020;-76
2022/11/21 07:15:54;;;;;;;3.75;1.17;;;6.40;99.90;;;;;;5089263;28;20365;-75
2022/11/21 07:18:21;;;;;;;2.10;0.88;;;6.50;99.90;;;;;;5088935;28;20020;-75
2022/11/21 07:20:48;;;;;;;3.40;1.42;;;6.50;99.90;;;;;;5089031;28;20060;-76
2022/11/21 07:23:14;;;;;;;1.92;1.83;;;6.70;99.90;;;;;;5090737;28;20032;-76
2022/11/21 07:25:40;;;;;;;1.70;0.75;;;6.60;99.90;;;;;;5088948;28;20024;-75
2022/11/21 07:28:07;;;;;;;0.70;0.60;;;6.60;99.90;;;;;;5105880;28;20031;-75
2022/11/21 07:30:33;;;;;;;4.50;1.52;;;6.60;99.90;;;;;;5090229;28;20030;-76
2022/11/21 07:33:01;;;;;;;1.70;0.93;;;6.50;99.90;;;;;;5090667;28;20016;-76
2022/11/21 07:35:27;;;;;;;0.88;0.68;;;6.50;99.90;;;;;;5089900;28;20082;-77
2022/11/21 07:37:53;;;;;;;2.42;0.88;;;6.50;99.90;;;;;;5105999;28;20056;-76
2022/11/21 07:40:19;;;;;;;2.40;0.70;;;6.50;99.90;;;;;;5105867;28;20027;-76
2022/11/21 07:42:46;;;;;;;2.40;1.00;;;6.60;99.90;;;;;;5090822;28;20012;-76
2022/11/21 07:45:13;;;;;;;2.78;1.08;;;6.60;99.90;;;;;;5088876;28;20056;-76
2022/11/21 07:47:39;;;;;;;3.00;1.58;;;6.70;99.90;;;;;;5088630;28;20110;-76
2022/11/21 07:50:07;;;;;;;2.22;0.93;;;6.80;99.90;;;;;;5088375;28;20024;-75
2022/11/21 07:52:33;;;;;;;2.63;0.80;;;6.90;99.90;;;;;;5088712;28;20028;-77
2022/11/21 07:55:01;;;;;;;4.80;2.30;;;7.00;99.90;;;;;;5090214;28;20032;-77
2022/11/21 07:57:27;;;;;;;8.27;1.30;;;7.00;99.90;;;;;;5088714;28;20016;-77
2022/11/21 07:59:53;;;;;;;1.15;0.70;;;7.20;99.90;;;;;;5090402;28;20112;-77
2022/11/21 08:02:24;;;;;;;0.85;0.63;;;7.30;99.90;;;;;;5096176;28;20430;-75
2022/11/21 08:04:50;;;;;;;4.38;0.93;;;7.40;99.90;;;;;;5093550;28;20057;-77
2022/11/21 08:07:18;;;;;;;5.00;2.08;;;7.60;99.90;;;;;;5087567;28;20403;-76
2022/11/21 08:09:44;;;;;;;3.72;1.58;;;7.60;99.90;;;;;;5087717;28;20032;-76
2022/11/21 08:12:10;;;;;;;0.80;0.63;;;7.80;99.90;;;;;;5088887;28;20020;-77
2022/11/21 08:14:36;;;;;;;2.60;0.68;;;7.80;99.90;;;;;;5089407;28;20020;-78
2022/11/21 08:17:03;;;;;;;3.10;0.93;;;7.70;99.90;;;;;;5090619;28;20020;-76
2022/11/21 08:19:29;;;;;;;4.32;1.65;;;7.70;99.90;;;;;;5091124;28;20024;-77
2022/11/21 08:21:54;;;;;;;2.50;1.13;;;7.80;99.90;;;;;;5089053;28;20026;-77
2022/11/21 08:24:20;;;;;;;2.38;1.30;;;7.90;99.90;;;;;;5091576;28;20140;-75
2022/11/21 08:26:46;;;;;;;9.27;2.05;;;7.90;99.90;;;;;;5076872;28;20413;-82
2022/11/21 08:29:15;;;;;;;4.43;1.25;;;8.00;99.90;;;;;;5069476;28;20055;-75
2022/11/21 08:31:42;;;;;;;8.55;1.67;;;8.10;99.90;;;;;;5071287;28;20028;-76
2022/11/21 08:34:08;;;;;;;5.47;1.10;;;8.10;99.90;;;;;;5075391;28;20025;-81
2022/11/21 08:36:34;;;;;;;12.38;3.22;;;8.00;99.90;;;;;;5069381;28;20405;-78
2022/11/21 08:38:59;;;;;;;2.85;0.80;;;8.00;99.90;;;;;;5070429;28;20032;-78
2022/11/21 08:44:10;;;;;;;4.22;0.80;;;8.10;99.90;;;;;;5069824;28;20087;-79
2022/11/21 08:46:36;;;;;;;3.40;0.98;;;8.20;99.90;;;;;;5068271;28;20477;-79
2022/11/21 08:49:06;;;;;;;1.75;1.17;;;8.30;99.90;;;;;;5067502;28;20020;-76
2022/11/21 08:51:31;;;;;;;3.67;0.73;;;8.30;99.90;;;;;;5067590;28;20515;-78
2022/11/21 08:53:58;;;;;;;1.05;0.70;;;;;;;;;;5067825;28;20461;-80
2022/11/21 08:56:24;;;;;;;1.20;0.60;;;8.40;99.90;;;;;;5065923;28;20032;-76
2022/11/21 08:58:50;;;;;;;2.75;1.15;;;8.40;99.90;;;;;;5067195;28;20043;-75
2022/11/21 09:01:15;;;;;;;3.05;0.82;;;10.20;99.90;;;;;;5084795;28;20054;-77
2022/11/21 09:03:41;;;;;;;3.63;0.88;;;8.40;99.90;;;;;;5088212;28;20036;-77
2022/11/21 09:06:07;;;;;;;6.38;1.70;;;;;;;;;;5089791;28;20028;-80
2022/11/21 09:08:33;;;;;;;6.18;1.30;;;8.50;99.90;;;;;;5087841;28;20028;-80
2022/11/21 09:11:06;;;;;;;7.25;1.50;;;8.50;99.90;;;;;;5087331;28;20028;-77
2022/11/21 09:13:32;;;;;;;2.97;0.95;;;8.60;99.90;;;;;;5088013;28;20726;-83
2022/11/21 09:18:42;;;;;;;2.72;1.42;;;8.70;99.90;;;;;;5087855;28;20117;-77
2022/11/21 09:21:12;;;;;;;3.50;0.50;;;8.80;99.90;;;;;;5089952;28;20588;-77
2022/11/21 09:23:38;;;;;;;3.50;0.70;;;8.90;99.90;;;;;;5091559;28;20027;-76
2022/11/21 09:26:04;;;;;;;4.40;0.90;;;8.90;99.90;;;;;;5092556;28;20039;-77
2022/11/21 09:28:29;;;;;;;5.88;0.68;;;9.00;99.90;;;;;;5108125;28;20035;-76
2022/11/21 09:30:55;;;;;;;1.98;0.80;;;9.00;99.90;;;;;;5092964;28;20023;-77
2022/11/21 09:33:20;;;;;;;0.90;0.70;;;9.00;99.90;;;;;;5107030;28;20061;-77
2022/11/21 09:35:46;;;;;;;1.20;0.65;;;9.10;99.90;;;;;;5107880;28;20508;-78
2022/11/21 09:38:12;;;;;;;4.53;0.38;;;9.20;99.90;;;;;;5089243;28;20096;-77
2022/11/21 09:40:42;;;;;;;2.78;1.52;;;9.30;99.90;;;;;;5088060;28;20495;-78
2022/11/21 09:43:24;;;;;;;1.30;0.43;;;9.30;99.90;;;;;;5087924;28;20036;-78
2022/11/21 09:46:06;;;;;;;0.40;0.40;;;9.30;99.90;;;;;;5086518;28;20621;-79
2022/11/21 09:48:42;;;;;;;0.40;0.40;;;9.30;99.50;;;;;;5086608;28;20536;-78
2022/11/21 09:51:12;;;;;;;3.13;0.70;;;9.30;99.70;;;;;;5086389;28;20020;-78
2022/11/21 09:53:47;;;;;;;8.25;1.67;;;9.40;99.60;;;;;;5086570;28;20455;-77
2022/11/21 09:56:18;;;;;;;6.32;1.95;;;9.50;99.80;;;;;;5088660;28;20028;-77
2022/11/21 09:59:21;;;;;;;3.67;1.48;;;9.60;99.60;;;;;;5086827;28;20028;-80
2022/11/21 10:01:47;;;;;;;1.70;1.13;;;9.70;99.90;;;;;;5086784;28;20023;-78
2022/11/21 10:04:13;;;;;;;8.77;2.13;;;9.80;97.50;;;;;;5088043;28;20055;-79
2022/11/21 10:06:44;;;;;;;4.53;1.45;;;10.00;96.00;;;;;;5086564;28;20020;-76
2022/11/21 10:09:34;;;;;;;1.45;0.40;;;10.00;95.90;;;;;;5088889;28;20027;-76
2022/11/21 10:12:37;;;;;;;0.95;0.60;;;10.20;95.60;;;;;;5088388;28;20073;-76
2022/11/21 10:15:11;;;;;;;1.55;0.90;;;10.40;94.90;;;;;;5088452;28;20035;-77
2022/11/21 10:17:55;;;;;;;0.63;0.57;;;10.40;94.00;;;;;;5085784;28;20111;-76
2022/11/21 10:20:48;;;;;;;3.13;2.05;;;10.50;93.70;;;;;;5087287;28;20020;-76
2022/11/21 10:23:25;;;;;;;7.78;2.33;;;10.60;93.90;;;;;;5066813;28;20049;-76
2022/11/21 10:26:09;;;;;;;0.65;0.65;;;10.90;93.10;;;;;;5066823;28;20028;-76
2022/11/21 10:28:50;;;;;;;3.33;1.88;;;10.70;91.10;;;;;;5066661;28;20020;-76
2022/11/21 10:31:16;;;;;;;4.22;1.27;;;10.60;91.20;;;;;;5064922;28;20079;-76
2022/11/21 10:33:43;;;;;;;2.75;0.98;;;10.60;91.60;;;;;;5066529;28;20492;-75
2022/11/21 10:36:15;;;;;;;1.50;1.00;;;10.60;93.10;;;;;;5068922;28;20521;-75
2022/11/21 10:38:43;;;;;;;1.25;1.15;;;10.70;93.00;;;;;;5068773;28;20028;-76
2022/11/21 10:41:12;;;;;;;3.40;1.15;;;10.60;94.50;;;;;;5068028;28;20393;-77
2022/11/21 10:46:22;;;;;;;1.10;0.98;;;10.60;93.10;;;;;;5068403;28;20077;-76
2022/11/21 10:48:59;;;;;;;3.30;0.90;;;10.60;92.10;;;;;;5066562;28;20052;-77
2022/11/21 10:51:46;;;;;;;0.98;0.73;;;10.70;92.30;;;;;;5067118;28;20032;-76
2022/11/21 10:54:31;;;;;;;4.85;1.25;;;10.50;92.20;;;;;;5067860;28;20062;-76
2022/11/21 10:57:16;;;;;;;8.48;1.77;;;10.40;92.60;;;;;;5066686;28;20025;-76
2022/11/21 10:59:55;;;;;;;2.90;0.90;;;10.30;92.10;;;;;;5067941;28;20468;-78
2022/11/21 11:02:24;;;;;;;4.18;1.08;;;10.20;93.10;;;;;;5069790;28;20449;-79
2022/11/21 11:05:17;;;;;;;1.90;0.88;;;10.20;93.90;;;;;;5069639;28;20044;-77
2022/11/21 11:08:01;;;;;;;3.20;0.60;;;10.00;93.70;;;;;;5067370;28;20086;-77
2022/11/21 11:10:27;;;;;;;2.25;0.90;;;10.10;93.50;;;;;;5068187;28;20044;-76
2022/11/21 11:15:52;;;;;;;2.47;1.02;;;10.30;94.40;;;;;;5067692;28;20036;-75
2022/11/21 11:18:21;;;;;;;7.35;0.82;;;10.40;92.80;;;;;;5065831;28;20112;-80
2022/11/21 11:20:47;;;;;;;1.23;0.73;;;10.50;93.00;;;;;;5072761;28;20057;-76
2022/11/21 11:23:21;;;;;;;1.00;0.80;;;10.50;92.50;;;;;;5088793;28;20105;-75
2022/11/21 11:25:49;;;;;;;2.25;0.93;;;10.50;92.10;;;;;;5086318;28;20060;-77
2022/11/21 11:28:15;;;;;;;10.13;1.67;;;10.50;93.20;;;;;;5087620;28;20027;-77
2022/11/21 11:30:41;;;;;;;5.22;1.30;;;10.40;93.00;;;;;;5086106;28;20020;-77
2022/11/21 11:33:26;;;;;;;2.92;1.52;;;9.10;94.00;;;;;;5086245;28;20023;-77
2022/11/21 11:35:52;;;;;;;2.00;1.00;;;10.40;94.80;;;;;;5084920;28;20043;-76
2022/11/21 11:38:19;;;;;;;3.03;0.77;;;10.70;95.20;;;;;;5101339;28;20028;-78
2022/11/21 11:40:45;;;;;;;1.02;0.90;;;10.90;95.10;;;;;;5085399;28;20043;-77
2022/11/21 11:49:24;;;;;;;2.17;1.17;;;10.80;93.70;;;;;;5087234;28;20038;-77
2022/11/21 11:52:02;;;;;;;8.77;3.45;;;12.30;93.00;;;;;;5085372;28;20032;-77
2022/11/21 11:54:44;;;;;;;8.27;2.05;;;10.30;94.30;;;;;;5085848;28;20027;-76
2022/11/21 11:57:11;;;;;;;1.95;1.08;;;10.50;94.60;;;;;;5085962;28;20625;-77
2022/11/21 11:59:44;;;;;;;7.28;1.10;;;10.60;95.40;;;;;;5085417;28;20069;-77
2022/11/21 12:02:24;;;;;;;2.15;1.20;;;10.80;94.40;;;;;;5085506;28;20183;-76
2022/11/21 12:04:50;;;;;;;3.72;1.35;;;;;;;;;;5086722;28;20191;-76
2022/11/21 12:07:29;;;;;;;2.63;0.90;;;11.00;93.10;;;;;;5087247;28;20218;-77
2022/11/21 12:10:16;;;;;;;2.20;1.92;;;11.10;93.80;;;;;;5085555;28;20020;-77
2022/11/21 12:12:48;;;;;;;2.17;0.90;;;11.20;93.60;;;;;;5085906;28;20040;-76
2022/11/21 12:15:47;;;;;;;1.80;0.70;;;11.30;93.10;;;;;;5087066;28;20085;-77
2022/11/21 12:18:22;;;;;;;3.35;0.98;;;11.20;93.30;;;;;;5085253;28;20028;-76
2022/11/21 12:21:00;;;;;;;3.20;0.95;;;11.20;92.30;;;;;;5087909;28;20111;-77
2022/11/21 12:23:35;;;;;;;4.15;1.00;;;11.10;94.10;;;;;;5083511;28;20079;-76
2022/11/21 12:26:19;;;;;;;2.63;1.50;;;11.10;93.50;;;;;;5083544;28;20028;-76
2022/11/21 12:29:05;;;;;;;4.68;0.82;;;11.00;92.30;;;;;;5085057;28;20020;-75
2022/11/21 12:31:40;;;;;;;4.55;0.85;;;10.90;92.80;;;;;;5083519;28;20064;-77
2022/11/21 12:34:08;;;;;;;5.13;1.17;;;11.00;92.30;;;;;;5083713;28;20111;-76
2022/11/21 12:36:56;;;;;;;6.30;0.95;;;10.90;92.50;;;;;;5084530;28;20468;-77
2022/11/21 12:39:40;;;;;;;4.65;1.33;;;10.60;92.40;;;;;;5085638;28;20106;-77
2022/11/21 12:45:27;;;;;;;1.52;1.23;;;10.40;92.80;;;;;;5085246;28;20078;-77
2022/11/21 12:54:48;;;;;;;1.75;1.35;;;9.80;92.80;;;;;;5085877;28;20078;-76
2022/11/21 12:57:17;;;;;;;2.50;0.68;;;9.70;93.10;;;;;;5087389;28;20028;-76
2022/11/21 12:59:49;;;;;;;3.05;0.65;;;9.60;93.40;;;;;;5089848;28;20031;-76
2022/11/21 13:02:28;;;;;;;0.40;0.40;;;9.60;94.00;;;;;;5090462;28;20024;-77
2022/11/21 13:04:57;;;;;;;0.90;0.55;;;9.60;93.90;;;;;;5089062;28;20504;-76
2022/11/21 13:07:28;;;;;;;1.58;0.80;;;9.70;93.70;;;;;;5090258;28;20552;-77
2022/11/21 13:09:55;;;;;;;2.22;0.57;;;9.80;93.70;;;;;;5089137;28;20424;-76
2022/11/21 13:12:28;;;;;;;4.25;0.85;;;9.90;94.10;;;;;;5088690;28;20031;-77
2022/11/21 13:15:03;;;;;;;2.47;0.65;;;10.00;94.90;;;;;;5088724;28;20380;-77
2022/11/21 13:17:53;;;;;;;17.88;0.90;;;10.20;94.00;;;;;;5089020;28;20024;-77
2022/11/21 13:20:22;;;;;;;2.08;0.43;;;10.20;93.30;;;;;;5090053;28;20024;-77
2022/11/21 13:22:56;;;;;;;1.70;0.45;;;10.30;92.60;;;;;;5068400;28;20116;-77
2022/11/21 13:25:31;;;;;;;6.25;1.00;;;10.20;93.00;;;;;;5068329;28;20366;-76
2022/11/21 13:28:12;;;;;;;0.50;0.50;;;10.20;93.50;;;;;;5068301;28;20455;-77
2022/11/21 13:30:49;;;;;;;2.88;1.52;;;10.10;94.40;;;;;;5069531;28;20027;-76
2022/11/21 13:33:33;;;;;;;2.28;0.63;;;10.10;93.20;;;;;;5067733;28;20094;-76
2022/11/21 13:36:09;;;;;;;1.50;1.40;;;10.00;92.50;;;;;;5068109;28;20052;-77